Main page
METAR-TAF:

METAR-TAF

Airports :

Salamanca, Spain

Salamanca Airport

latitude: 40-57N, longitude: 005-30W, elevation: 793 m

Current weather observation

The report was made 22 minutes ago, at 07:00 UTC
Wind 8 kt from the South/Southeast
Temperature 2°C
Humidity 69%
Pressure 1016 hPa
Visibility 10 km or more
no clouds below 1500 m and no cumulonimbus

METAR: LESA 220700Z 15008KT CAVOK 02/M03 Q1016

Time: 08:22 (07:22 UTC)

Forecast

The report was made 2 hours and 22 minutes ago, at 05:00 UTC
Forecast valid from 22 at 06 UTC to 23 at 06 UTC
Wind 5 kt from variable directions
Visibility 10 km or more
no clouds below 1500 m and no cumulonimbus
Becoming
from 22 at 10 UTC to 22 at 14 UTC
Wind 10 kt from the Southwest with gusts up to 25 kt

TAF: LESA 220500Z 2206/2306 VRB05KT CAVOK TX18/2215Z TNM02/2206Z BECMG 2210/2214 22010G25KT

Weather observations and forecasts of more than 4000 airports (METAR and TAF reports).

The available stations are represented by yellow and red dots on the map.

Hover mouse over dot to see the name of the station.

Then click to see weather observations and forecasts.

To change the map : click on the green buttons with a black cross to zoom in, on the green button with a dash to zoom out, or on the green arrows for adjacent maps.


METAR-TAF: